createdAt,value
2023-05-24T00:00:55.822Z,102002.69
2023-05-24T00:03:25.278Z,102006.34
2023-05-24T00:05:53.494Z,101996.94
2023-05-24T00:08:21.589Z,102000.56
2023-05-24T00:10:49.561Z,101995.00
2023-05-24T00:13:17.517Z,102001.84
2023-05-24T00:15:45.477Z,101992.84
2023-05-24T00:18:13.457Z,101996.91
2023-05-24T00:20:42.965Z,102001.22
2023-05-24T00:23:11.141Z,102002.72
2023-05-24T00:25:39.086Z,101999.69
2023-05-24T00:28:07.068Z,101995.63
2023-05-24T00:30:35.024Z,101992.19
2023-05-24T00:33:03.005Z,101987.00
2023-05-24T00:35:30.997Z,101988.78
2023-05-24T00:38:00.393Z,101992.19
2023-05-24T00:40:28.452Z,101984.06
2023-05-24T00:42:56.406Z,101989.19
2023-05-24T00:45:24.331Z,101987.06
2023-05-24T00:47:52.487Z,101986.63
2023-05-24T00:50:20.752Z,101979.31
2023-05-24T00:52:49.290Z,101984.06
2023-05-24T00:55:18.751Z,101979.75
2023-05-24T00:57:46.756Z,101979.34
2023-05-24T01:00:15.868Z,101978.47
2023-05-24T01:02:43.936Z,101973.34
2023-05-24T01:05:13.754Z,101983.22
2023-05-24T01:07:49.882Z,101979.34
2023-05-24T01:10:27.102Z,101977.81
2023-05-24T01:13:00.977Z,101972.03
2023-05-24T01:15:35.206Z,101965.56
2023-05-24T01:18:07.957Z,101967.47
2023-05-24T01:20:38.615Z,101957.84
2023-05-24T01:23:19.392Z,101965.53
2023-05-24T01:25:54.260Z,101962.59
2023-05-24T01:28:23.894Z,101964.28
2023-05-24T01:30:52.225Z,101958.44
2023-05-24T01:33:20.313Z,101954.84
2023-05-24T01:35:48.236Z,101950.94
2023-05-24T01:38:16.261Z,101941.56
2023-05-24T01:40:45.066Z,101945.63
2023-05-24T01:43:17.342Z,101954.44
2023-05-24T01:46:02.296Z,101947.56
2023-05-24T01:48:38.080Z,101943.50
2023-05-24T01:51:08.379Z,101946.06
2023-05-24T01:53:43.200Z,101937.31
2023-05-24T01:56:12.257Z,101943.75
2023-05-24T01:58:40.698Z,101949.72
2023-05-24T02:01:10.462Z,101939.88
2023-05-24T02:03:39.102Z,101935.16
2023-05-24T02:06:08.309Z,101936.88
2023-05-24T02:08:36.246Z,101945.88
2023-05-24T02:11:04.239Z,101941.59
2023-05-24T02:13:32.160Z,101933.63
2023-05-24T02:16:00.192Z,101933.88
2023-05-24T02:18:34.684Z,101940.28
2023-05-24T02:21:03.277Z,101941.13
2023-05-24T02:23:31.757Z,101938.34
2023-05-24T02:25:59.680Z,101944.16
2023-05-24T02:28:28.426Z,101940.09
2023-05-24T02:30:56.388Z,101945.22
2023-05-24T02:33:25.628Z,101942.66
2023-05-24T02:35:55.017Z,101939.00
2023-05-24T02:38:23.327Z,101933.88
2023-05-24T02:40:51.255Z,101942.22
2023-05-24T02:43:19.192Z,101946.72
2023-05-24T02:45:47.275Z,101945.63
2023-05-24T02:48:15.212Z,101944.38
2023-05-24T02:50:43.426Z,101947.59
2023-05-24T02:53:12.976Z,101945.00
2023-05-24T02:55:44.036Z,101947.81
2023-05-24T02:58:12.190Z,101954.47
2023-05-24T03:00:40.322Z,101951.88
2023-05-24T03:03:08.479Z,101948.25
2023-05-24T03:05:36.535Z,101947.81
2023-05-24T03:08:04.524Z,101951.47
2023-05-24T03:10:33.896Z,101954.25
2023-05-24T03:13:01.917Z,101954.03
2023-05-24T03:15:29.844Z,101953.63
2023-05-24T03:17:58.008Z,101953.19
2023-05-24T03:20:26.030Z,101951.44
2023-05-24T03:22:53.988Z,101956.41
2023-05-24T03:25:22.072Z,101958.34
2023-05-24T03:27:51.397Z,101959.59
2023-05-24T03:30:19.353Z,101958.78
2023-05-24T03:32:47.345Z,101955.75
2023-05-24T03:35:15.305Z,101949.97
2023-05-24T03:37:43.283Z,101944.63
2023-05-24T03:40:11.652Z,101940.34
2023-05-24T03:42:39.854Z,101947.63
2023-05-24T03:45:10.644Z,101946.09
2023-05-24T03:47:38.585Z,101948.47
2023-05-24T03:50:07.409Z,101953.59
2023-05-24T03:52:35.361Z,101960.25
2023-05-24T03:55:03.297Z,101955.56
2023-05-24T03:57:31.244Z,101955.34
2023-05-24T04:00:00.372Z,101959.81
2023-05-24T04:02:29.804Z,101954.88
2023-05-24T04:04:57.867Z,101962.63
2023-05-24T04:07:25.822Z,101959.63
2023-05-24T04:09:53.736Z,101954.25
2023-05-24T04:12:21.679Z,101960.47
2023-05-24T04:14:49.601Z,101963.88
2023-05-24T04:17:18.714Z,101965.81
2023-05-24T04:19:48.125Z,101963.03
2023-05-24T04:22:16.141Z,101963.69
2023-05-24T04:24:44.083Z,101967.34
2023-05-24T04:27:12.147Z,101969.03
2023-05-24T04:29:41.233Z,101970.34
2023-05-24T04:32:10.522Z,101969.25
2023-05-24T04:34:42.743Z,101968.19
2023-05-24T04:37:13.746Z,101967.75
2023-05-24T04:39:41.924Z,101975.69
2023-05-24T04:42:09.917Z,101971.19
2023-05-24T04:44:37.902Z,101975.25
2023-05-24T04:47:06.349Z,101976.75
2023-05-24T04:49:34.308Z,101978.03
2023-05-24T04:52:02.223Z,101976.97
2023-05-24T04:54:31.608Z,101978.91
2023-05-24T04:56:59.578Z,101982.34
2023-05-24T04:59:27.520Z,101976.75
2023-05-24T05:01:55.570Z,101977.41
2023-05-24T05:04:23.522Z,101967.13
2023-05-24T05:06:51.548Z,101963.25
2023-05-24T05:09:19.803Z,101954.47
2023-05-24T05:11:49.329Z,101952.53
2023-05-24T05:14:17.566Z,101963.47
2023-05-24T05:19:14.273Z,101955.34
2023-05-24T05:21:42.190Z,101966.47
2023-05-24T05:24:10.204Z,101973.75
2023-05-24T05:26:38.196Z,101973.53
2023-05-24T05:29:07.549Z,101979.75
2023-05-24T05:31:36.142Z,101984.06
2023-05-24T05:34:04.133Z,101980.38
2023-05-24T05:36:32.373Z,101981.41
2023-05-24T05:39:00.347Z,101982.72
2023-05-24T05:41:28.344Z,101985.22
2023-05-24T05:43:56.494Z,101992.56
2023-05-24T05:46:25.900Z,101996.81
2023-05-24T05:48:53.812Z,101994.47
2023-05-24T05:51:21.759Z,101993.41
2023-05-24T05:53:49.692Z,101996.81
2023-05-24T05:56:17.755Z,101993.41
2023-05-24T05:58:45.705Z,101998.78
2023-05-24T06:01:13.728Z,101999.44
2023-05-24T06:03:43.260Z,101995.34
2023-05-24T06:06:11.319Z,101997.69
2023-05-24T06:08:40.902Z,101999.38
2023-05-24T06:11:08.861Z,101993.75
2023-05-24T06:13:36.784Z,101991.22
2023-05-24T06:16:04.818Z,101990.50
2023-05-24T06:18:32.755Z,101996.22
2023-05-24T06:21:02.055Z,102004.31
2023-05-24T06:23:30.047Z,102000.22
2023-05-24T06:25:58.012Z,102011.59
2023-05-24T06:28:26.191Z,102014.97
2023-05-24T06:30:54.381Z,102004.06
2023-05-24T06:33:22.641Z,102017.13
2023-05-24T06:35:50.727Z,102014.91
2023-05-24T06:38:20.084Z,102018.13
2023-05-24T06:40:48.013Z,102023.88
2023-05-24T06:43:16.295Z,102032.25
2023-05-24T06:45:44.467Z,102034.47
2023-05-24T06:48:12.469Z,102028.66
2023-05-24T06:50:42.563Z,102026.63
2023-05-24T06:53:11.110Z,102026.00
2023-05-24T06:55:40.437Z,102028.53
2023-05-24T06:58:08.713Z,102026.59
2023-05-24T07:00:36.648Z,102040.22
2023-05-24T07:03:04.999Z,102040.69
2023-05-24T07:05:33.018Z,102050.13
2023-05-24T07:08:01.059Z,102047.63
2023-05-24T07:10:28.992Z,102049.31
2023-05-24T07:12:58.304Z,102052.53
2023-05-24T07:15:26.317Z,102056.13
2023-05-24T07:17:55.125Z,102059.56
2023-05-24T07:20:23.097Z,102063.75
2023-05-24T07:22:52.100Z,102056.19
2023-05-24T07:25:20.036Z,102067.25
2023-05-24T07:27:47.985Z,102068.91
2023-05-24T07:30:31.034Z,102062.28
2023-05-24T07:33:00.082Z,102073.56
2023-05-24T07:35:28.692Z,102077.09
2023-05-24T07:37:56.901Z,102076.06
2023-05-24T07:40:24.939Z,102072.91
2023-05-24T07:42:52.913Z,102077.38
2023-05-24T07:45:22.285Z,102078.72
2023-05-24T07:47:50.367Z,102077.91
2023-05-24T07:50:19.118Z,102083.59
2023-05-24T07:52:47.071Z,102083.56
2023-05-24T07:55:15.027Z,102081.97
2023-05-24T07:57:43.037Z,102081.16
2023-05-24T08:00:14.850Z,102088.72
2023-05-24T08:02:46.373Z,102087.75
2023-05-24T08:05:15.080Z,102083.03
2023-05-24T08:07:43.064Z,102085.09
2023-05-24T08:10:12.748Z,102086.28
2023-05-24T08:12:40.842Z,102090.69
2023-05-24T08:15:09.674Z,102091.50
2023-05-24T08:17:37.793Z,102083.31
2023-05-24T08:20:09.831Z,102085.56
2023-05-24T08:22:38.325Z,102089.78
2023-05-24T08:25:07.326Z,102081.50
2023-05-24T08:27:35.262Z,102077.09
2023-05-24T08:30:04.446Z,102085.22
2023-05-24T08:32:33.375Z,102086.50
2023-05-24T08:35:18.652Z,102085.44
2023-05-24T08:37:50.918Z,102093.16
2023-05-24T08:40:19.100Z,102089.63
2023-05-24T08:42:47.389Z,102083.28
2023-05-24T08:45:16.488Z,102090.41
2023-05-24T08:47:44.598Z,102096.31
2023-05-24T08:50:12.850Z,102092.97
2023-05-24T08:52:41.714Z,102105.22
2023-05-24T08:55:12.506Z,102112.25
2023-05-24T08:57:41.691Z,102105.78
2023-05-24T09:00:11.932Z,102103.88
2023-05-24T09:02:42.163Z,102108.69
2023-05-24T09:05:12.018Z,102109.50
2023-05-24T09:07:39.998Z,102108.75
2023-05-24T09:10:10.979Z,102112.56
2023-05-24T09:12:40.322Z,102114.75
2023-05-24T09:15:09.961Z,102122.03
2023-05-24T09:17:39.150Z,102119.88
2023-05-24T09:20:09.059Z,102115.41
2023-05-24T09:22:41.076Z,102120.19
2023-05-24T09:25:14.293Z,102128.66
2023-05-24T09:27:42.471Z,102127.50
2023-05-24T09:30:12.788Z,102127.75
2023-05-24T09:32:41.364Z,102120.09
2023-05-24T09:35:10.713Z,102122.50
2023-05-24T09:37:40.505Z,102131.47
2023-05-24T09:40:14.843Z,102122.88
2023-05-24T09:42:42.961Z,102134.38
2023-05-24T09:45:12.241Z,102126.66
2023-05-24T09:47:43.336Z,102130.81
2023-05-24T09:50:14.698Z,102118.34
2023-05-24T09:52:43.197Z,102130.44
2023-05-24T09:55:15.918Z,102132.91
2023-05-24T09:57:45.087Z,102143.00
2023-05-24T10:00:20.402Z,102144.66
2023-05-24T10:05:19.469Z,102146.84
2023-05-24T10:07:48.000Z,102151.31
2023-05-24T10:10:17.334Z,102147.88
2023-05-24T10:12:47.053Z,102155.72
2023-05-24T10:15:15.295Z,102149.66
2023-05-24T10:17:43.249Z,102146.25
2023-05-24T10:20:13.119Z,102150.44
2023-05-24T10:22:44.088Z,102153.78
2023-05-24T10:25:14.740Z,102155.75
2023-05-24T10:27:45.928Z,102159.84
2023-05-24T10:30:18.980Z,102156.53
2023-05-24T10:32:47.427Z,102158.47
2023-05-24T10:35:16.217Z,102158.75
2023-05-24T10:37:44.154Z,102159.31
2023-05-24T10:40:18.236Z,102164.13
2023-05-24T10:42:49.995Z,102172.69
2023-05-24T10:45:32.961Z,102168.16
2023-05-24T10:48:03.606Z,102165.34
2023-05-24T10:50:31.617Z,102169.75
2023-05-24T10:53:12.632Z,102161.88
2023-05-24T10:55:56.164Z,102161.38
2023-05-24T10:58:30.775Z,102157.56
2023-05-24T11:00:58.724Z,102160.72
2023-05-24T11:03:26.681Z,102162.09
2023-05-24T11:05:55.617Z,102157.34
2023-05-24T11:08:27.561Z,102155.56
2023-05-24T11:11:24.470Z,102155.47
2023-05-24T11:13:58.771Z,102153.44
2023-05-24T11:16:38.530Z,102160.47
2023-05-24T11:19:14.257Z,102161.31
2023-05-24T11:21:42.438Z,102157.81
2023-05-24T11:24:11.169Z,102156.84
2023-05-24T11:26:39.163Z,102158.94
2023-05-24T11:29:09.226Z,102165.59
2023-05-24T11:31:43.178Z,102166.28
2023-05-24T11:34:12.164Z,102165.28
2023-05-24T11:36:41.189Z,102168.25
2023-05-24T11:39:09.974Z,102169.69
2023-05-24T11:41:39.130Z,102158.19
2023-05-24T11:44:10.148Z,102169.06
2023-05-24T11:46:39.607Z,102155.72
2023-05-24T11:49:08.186Z,102169.38
2023-05-24T11:51:37.678Z,102153.84
2023-05-24T11:54:06.218Z,102157.06
2023-05-24T11:56:34.509Z,102164.63
2023-05-24T11:59:13.082Z,102160.41
2023-05-24T12:01:41.673Z,102165.81
2023-05-24T12:04:10.632Z,102169.97
2023-05-24T12:06:40.227Z,102169.81
2023-05-24T12:09:13.332Z,102162.28
2023-05-24T12:11:42.548Z,102160.72
2023-05-24T12:14:15.160Z,102163.84
2023-05-24T12:16:43.747Z,102160.25
2023-05-24T12:19:31.800Z,102171.41
2023-05-24T12:22:02.149Z,102171.06
2023-05-24T12:24:30.820Z,102174.50
2023-05-24T12:27:03.492Z,102187.16
2023-05-24T12:29:36.597Z,102192.13
2023-05-24T12:32:05.888Z,102195.72
2023-05-24T12:34:34.029Z,102200.88
2023-05-24T12:37:01.967Z,102204.25
2023-05-24T12:39:31.941Z,102212.69
2023-05-24T12:42:01.776Z,102206.81
2023-05-24T12:44:30.847Z,102215.88
2023-05-24T12:47:00.651Z,102214.94
2023-05-24T12:49:28.725Z,102215.66
2023-05-24T12:51:57.645Z,102222.75
2023-05-24T12:54:26.759Z,102226.47
2023-05-24T12:56:57.002Z,102215.81
2023-05-24T12:59:25.678Z,102216.28
2023-05-24T13:01:53.987Z,102230.03
2023-05-24T13:04:26.159Z,102227.91
2023-05-24T13:06:54.379Z,102218.22
2023-05-24T13:09:23.719Z,102230.56
2023-05-24T13:11:52.302Z,102228.13
2023-05-24T13:14:20.912Z,102224.09
2023-05-24T13:16:49.156Z,102227.03
2023-05-24T13:19:17.776Z,102220.53
2023-05-24T13:21:47.185Z,102219.19
2023-05-24T13:24:16.707Z,102216.59
2023-05-24T13:26:44.853Z,102217.59
2023-05-24T13:31:44.969Z,102215.41
2023-05-24T13:34:13.604Z,102215.94
2023-05-24T13:36:42.062Z,102210.03
2023-05-24T13:41:43.073Z,102215.78
2023-05-24T13:44:11.434Z,102211.63
2023-05-24T13:46:40.258Z,102219.69
2023-05-24T13:49:09.431Z,102219.19
2023-05-24T13:51:37.861Z,102215.31
2023-05-24T13:54:07.398Z,102211.31
2023-05-24T13:56:37.266Z,102204.97
2023-05-24T13:59:05.739Z,102214.28
2023-05-24T14:01:34.209Z,102204.31
2023-05-24T14:04:03.055Z,102209.88
2023-05-24T14:06:31.360Z,102205.06
2023-05-24T14:08:59.862Z,102200.28
2023-05-24T14:11:31.491Z,102214.75
2023-05-24T14:16:31.833Z,102204.31
2023-05-24T14:18:59.859Z,102205.78
2023-05-24T14:21:28.053Z,102206.25
2023-05-24T14:23:55.977Z,102204.59
2023-05-24T14:26:24.449Z,102210.13
2023-05-24T14:28:56.042Z,102210.19
2023-05-24T14:31:26.265Z,102207.34
2023-05-24T14:33:54.306Z,102218.03
2023-05-24T14:36:22.226Z,102205.91
2023-05-24T14:38:50.214Z,102223.44
2023-05-24T14:41:18.259Z,102224.34
2023-05-24T14:43:46.184Z,102222.22
2023-05-24T14:46:14.199Z,102223.28
2023-05-24T14:48:43.596Z,102220.91
2023-05-24T14:51:11.542Z,102225.31
2023-05-24T14:53:39.499Z,102221.59
2023-05-24T14:56:09.007Z,102222.03
2023-05-24T14:58:37.227Z,102224.69
2023-05-24T15:01:05.349Z,102224.47
2023-05-24T15:03:33.502Z,102225.09
2023-05-24T15:06:02.979Z,102229.34
2023-05-24T15:08:30.926Z,102238.88
2023-05-24T15:10:59.340Z,102227.13
2023-05-24T15:13:27.342Z,102233.66
2023-05-24T15:15:56.746Z,102236.28
2023-05-24T15:18:27.992Z,102233.13
2023-05-24T15:20:56.387Z,102230.09
2023-05-24T15:23:26.256Z,102233.28
2023-05-24T15:25:54.431Z,102227.78
2023-05-24T15:28:24.640Z,102221.63
2023-05-24T15:30:54.429Z,102222.72
2023-05-24T15:33:22.548Z,102227.22
2023-05-24T15:35:50.584Z,102234.00
2023-05-24T15:38:18.771Z,102232.06
2023-05-24T15:40:48.729Z,102235.75
2023-05-24T15:43:18.885Z,102233.41
2023-05-24T15:45:47.402Z,102233.47
2023-05-24T15:48:15.619Z,102233.06
2023-05-24T15:51:06.524Z,102230.19
2023-05-24T15:53:32.558Z,102226.03
2023-05-24T15:56:01.864Z,102227.09
2023-05-24T15:58:29.854Z,102232.66
2023-05-24T16:00:57.919Z,102235.00
2023-05-24T16:03:26.026Z,102233.81
2023-05-24T16:05:54.191Z,102236.13
2023-05-24T16:08:27.545Z,102242.03
2023-05-24T16:10:55.688Z,102232.22
2023-05-24T16:13:25.061Z,102228.84
2023-05-24T16:15:53.216Z,102233.19
2023-05-24T16:18:22.829Z,102231.50
2023-05-24T16:20:51.901Z,102233.81
2023-05-24T16:23:22.994Z,102237.91
2023-05-24T16:25:51.426Z,102226.84
2023-05-24T16:28:23.928Z,102228.72
2023-05-24T16:30:56.373Z,102235.78
2023-05-24T16:33:24.914Z,102222.13
2023-05-24T16:35:56.333Z,102232.88
2023-05-24T16:38:24.678Z,102225.31
2023-05-24T16:40:53.383Z,102227.69
2023-05-24T16:43:21.610Z,102228.25
2023-05-24T16:45:49.929Z,102238.25
2023-05-24T16:48:21.642Z,102238.09
2023-05-24T16:50:50.461Z,102237.09
2023-05-24T16:53:20.363Z,102233.38
2023-05-24T16:55:53.580Z,102234.47
2023-05-24T16:58:21.642Z,102238.88
2023-05-24T17:00:49.731Z,102232.72
2023-05-24T17:03:22.110Z,102233.06
2023-05-24T17:05:50.398Z,102233.34
2023-05-24T17:08:18.947Z,102233.97
2023-05-24T17:10:46.891Z,102235.63
2023-05-24T17:13:14.897Z,102231.97
2023-05-24T17:15:42.893Z,102234.69
2023-05-24T17:18:11.509Z,102237.63
2023-05-24T17:20:41.196Z,102236.47
2023-05-24T17:23:09.470Z,102242.91
2023-05-24T17:25:37.403Z,102240.06
2023-05-24T17:28:05.325Z,102245.53
2023-05-24T17:30:33.364Z,102252.75
2023-05-24T17:33:01.365Z,102253.91
2023-05-24T17:35:29.348Z,102246.88
2023-05-24T17:37:58.684Z,102250.09
2023-05-24T17:40:26.735Z,102250.09
2023-05-24T17:42:54.658Z,102257.00
2023-05-24T17:45:22.754Z,102251.47
2023-05-24T17:47:50.778Z,102252.88
2023-05-24T17:50:18.807Z,102259.63
2023-05-24T17:52:46.751Z,102260.78
2023-05-24T17:55:16.142Z,102263.00
2023-05-24T17:57:44.685Z,102278.44
2023-05-24T18:00:13.989Z,102284.25
2023-05-24T18:02:42.450Z,102276.53
2023-05-24T18:05:10.838Z,102276.81
2023-05-24T18:07:38.781Z,102278.72
2023-05-24T18:10:08.008Z,102282.53
2023-05-24T18:12:37.668Z,102282.78
2023-05-24T18:15:06.837Z,102289.63
2023-05-24T18:17:35.002Z,102283.78
2023-05-24T18:20:03.322Z,102290.63
2023-05-24T18:22:31.742Z,102287.44
2023-05-24T18:24:59.703Z,102286.31
2023-05-24T18:27:27.693Z,102287.13
2023-05-24T18:29:57.014Z,102289.16
2023-05-24T18:32:25.072Z,102293.13
2023-05-24T18:34:53.169Z,102295.78
2023-05-24T18:37:23.080Z,102296.59
2023-05-24T18:39:51.178Z,102298.41
2023-05-24T18:42:19.105Z,102302.13
2023-05-24T18:44:47.071Z,102299.31
2023-05-24T18:47:16.530Z,102307.38
2023-05-24T18:49:44.473Z,102305.78
2023-05-24T18:52:12.385Z,102297.44
2023-05-24T18:54:40.347Z,102305.91
2023-05-24T18:57:08.482Z,102313.66
2023-05-24T18:59:37.733Z,102323.94
2023-05-24T19:02:07.491Z,102317.06
2023-05-24T19:04:37.003Z,102312.00
2023-05-24T19:07:05.095Z,102316.19
2023-05-24T19:09:33.909Z,102315.38
2023-05-24T19:12:04.523Z,102332.03
2023-05-24T19:14:32.549Z,102322.31
2023-05-24T19:17:00.684Z,102318.16
2023-05-24T19:19:28.640Z,102319.75
2023-05-24T19:21:58.007Z,102325.34
2023-05-24T19:24:26.179Z,102329.28
2023-05-24T19:26:54.264Z,102330.50
2023-05-24T19:29:22.183Z,102335.78
2023-05-24T19:31:50.992Z,102325.28
2023-05-24T19:34:19.941Z,102323.66
2023-05-24T19:36:47.911Z,102330.09
2023-05-24T19:39:17.225Z,102334.88
2023-05-24T19:41:45.180Z,102339.66
2023-05-24T19:44:13.191Z,102339.88
2023-05-24T19:46:41.244Z,102338.91
2023-05-24T19:49:09.286Z,102352.47
2023-05-24T19:51:37.553Z,102354.06
2023-05-24T19:54:06.108Z,102361.66
2023-05-24T19:56:35.428Z,102365.06
2023-05-24T19:59:03.404Z,102360.47
2023-05-24T20:01:31.487Z,102367.72
2023-05-24T20:03:59.595Z,102368.28
2023-05-24T20:06:27.666Z,102370.22
2023-05-24T20:08:57.802Z,102374.19
2023-05-24T20:11:25.891Z,102379.25
2023-05-24T20:13:56.214Z,102383.75
2023-05-24T20:16:24.511Z,102385.06
2023-05-24T20:18:52.460Z,102392.75
2023-05-24T20:21:20.694Z,102398.84
2023-05-24T20:23:50.607Z,102407.91
2023-05-24T20:26:18.578Z,102407.25
2023-05-24T20:28:47.065Z,102407.25
2023-05-24T20:31:16.662Z,102404.69
2023-05-24T20:33:44.733Z,102413.31
2023-05-24T20:36:14.904Z,102419.31
2023-05-24T20:38:42.898Z,102416.28
2023-05-24T20:41:10.860Z,102418.88
2023-05-24T20:43:39.080Z,102410.50
2023-05-24T20:46:07.169Z,102416.31
2023-05-24T20:48:36.546Z,102418.69
2023-05-24T20:51:04.538Z,102418.66
2023-05-24T20:53:32.475Z,102421.03
2023-05-24T20:56:01.953Z,102419.06
2023-05-24T20:58:31.110Z,102424.72
2023-05-24T21:00:59.253Z,102422.78
2023-05-24T21:03:27.355Z,102423.00
2023-05-24T21:05:56.722Z,102416.13
2023-05-24T21:08:24.800Z,102429.03
2023-05-24T21:10:55.559Z,102425.13
2023-05-24T21:13:25.539Z,102424.72
2023-05-24T21:15:53.555Z,102429.00
2023-05-24T21:18:21.476Z,102431.56
2023-05-24T21:20:49.675Z,102435.44
2023-05-24T21:23:18.999Z,102433.28
2023-05-24T21:25:46.918Z,102434.56
2023-05-24T21:28:15.145Z,102440.63
2023-05-24T21:30:43.153Z,102446.59
2023-05-24T21:33:11.354Z,102447.28
2023-05-24T21:35:39.414Z,102450.72
2023-05-24T21:38:07.327Z,102456.75
2023-05-24T21:40:36.650Z,102454.38
2023-05-24T21:43:05.236Z,102447.06
2023-05-24T21:45:33.354Z,102449.63
2023-05-24T21:48:01.451Z,102447.50
2023-05-24T21:50:29.431Z,102452.66
2023-05-24T21:52:57.416Z,102457.59
2023-05-24T21:55:25.530Z,102453.94
2023-05-24T21:57:54.870Z,102452.22
2023-05-24T22:00:23.616Z,102464.06
2023-05-24T22:02:51.675Z,102463.84
2023-05-24T22:05:19.842Z,102469.00
2023-05-24T22:07:47.776Z,102465.16
2023-05-24T22:10:15.783Z,102460.84
2023-05-24T22:12:43.739Z,102464.28
2023-05-24T22:15:13.396Z,102470.31
2023-05-24T22:17:42.022Z,102457.41
2023-05-24T22:20:11.668Z,102462.34
2023-05-24T22:22:48.786Z,102467.97
2023-05-24T22:25:19.474Z,102465.13
2023-05-24T22:27:48.488Z,102464.69
2023-05-24T22:30:18.617Z,102475.41
2023-05-24T22:32:46.643Z,102469.41
2023-05-24T22:35:14.632Z,102476.06
2023-05-24T22:37:42.982Z,102481.69
2023-05-24T22:40:12.296Z,102486.19
2023-05-24T22:42:40.212Z,102484.06
2023-05-24T22:45:09.271Z,102476.13
2023-05-24T22:47:39.947Z,102479.34
2023-05-24T22:50:09.152Z,102486.19
2023-05-24T22:52:42.425Z,102481.03
2023-05-24T22:55:10.999Z,102474.63
2023-05-24T22:57:39.248Z,102471.16
2023-05-24T23:00:08.933Z,102462.94
2023-05-24T23:02:38.366Z,102467.69
2023-05-24T23:05:07.384Z,102463.56
2023-05-24T23:07:37.477Z,102468.31
2023-05-24T23:10:06.008Z,102468.31
2023-05-24T23:12:34.403Z,102462.31
2023-05-24T23:15:02.417Z,102468.94
2023-05-24T23:17:30.754Z,102466.97
2023-05-24T23:20:00.112Z,102475.50
2023-05-24T23:22:28.120Z,102473.59
2023-05-24T23:24:56.049Z,102472.53
2023-05-24T23:27:23.985Z,102469.75
2023-05-24T23:29:51.948Z,102471.91
2023-05-24T23:32:19.886Z,102466.34
2023-05-24T23:34:47.829Z,102474.72
2023-05-24T23:37:17.239Z,102465.06
2023-05-24T23:39:45.185Z,102466.16
2023-05-24T23:42:13.110Z,102472.81
2023-05-24T23:44:41.100Z,102460.31
2023-05-24T23:47:09.400Z,102468.28
2023-05-24T23:49:37.481Z,102468.50
2023-05-24T23:52:06.044Z,102466.09
2023-05-24T23:54:35.342Z,102462.47
2023-05-24T23:57:04.050Z,102463.97
2023-05-24T23:59:31.963Z,102462.91
